Time;durP1;ratioP1;P1;durP2;ratioP2;P2;SDS_P1;SDS_P2;PMS_P1;PMS_P2;Temp;Humidity;BMP_temperature;BMP_pressure;BME280_temperature;BME280_humidity;BME280_pressure;Samples;Min_cycle;Max_cycle;Signal;HPM_P1;HPM_P2
2023/12/29 00:01:51;;;;;;;1.73;0.83;;;19.60;46.20;;;;;;4979846;28;20498;-71
2023/12/29 00:04:17;;;;;;;1.10;1.00;;;19.60;46.20;;;;;;4980177;28;20847;-72
2023/12/29 00:06:43;;;;;;;1.90;1.40;;;19.60;46.30;;;;;;5005039;28;20223;-72
2023/12/29 00:09:08;;;;;;;1.37;1.27;;;19.60;46.20;;;;;;4989837;28;20215;-71
2023/12/29 00:11:34;;;;;;;1.73;1.20;;;19.60;46.30;;;;;;4980087;28;20264;-71
2023/12/29 00:13:59;;;;;;;2.30;1.10;;;19.60;46.20;;;;;;4988800;28;20277;-72
2023/12/29 00:16:27;;;;;;;1.20;1.00;;;19.50;46.10;;;;;;4987135;28;20754;-73
2023/12/29 00:18:52;;;;;;;1.20;1.00;;;19.50;46.10;;;;;;4969627;28;20235;-71
2023/12/29 00:21:18;;;;;;;1.83;1.20;;;19.50;46.10;;;;;;4979996;28;20482;-71
2023/12/29 00:23:43;;;;;;;1.00;0.83;;;19.60;46.20;;;;;;4986567;28;20235;-72
2023/12/29 00:26:09;;;;;;;1.63;1.00;;;19.60;46.20;;;;;;4989344;28;20599;-73
2023/12/29 00:28:36;;;;;;;1.67;1.10;;;19.50;46.10;;;;;;4991056;28;20278;-72
2023/12/29 00:31:02;;;;;;;1.90;1.30;;;19.60;46.30;;;;;;4989050;28;20289;-72
2023/12/29 00:33:27;;;;;;;1.13;1.00;;;19.50;46.10;;;;;;4991412;28;20970;-72
2023/12/29 00:35:53;;;;;;;1.10;0.93;;;19.50;46.10;;;;;;4986332;28;20248;-73
2023/12/29 00:38:18;;;;;;;1.70;1.03;;;19.60;46.30;;;;;;4989781;28;20266;-72
2023/12/29 00:40:44;;;;;;;1.40;1.10;;;19.50;46.20;;;;;;4988510;28;20219;-71
2023/12/29 00:43:09;;;;;;;1.30;1.20;;;19.50;46.10;;;;;;4979968;28;20227;-71
2023/12/29 00:45:36;;;;;;;4.20;1.17;;;19.50;46.10;;;;;;4981852;28;20298;-73
2023/12/29 00:48:02;;;;;;;1.83;0.77;;;19.50;46.10;;;;;;4990928;28;20223;-71
2023/12/29 00:50:27;;;;;;;1.27;1.00;;;19.50;46.10;;;;;;4974232;28;20487;-72
2023/12/29 00:52:53;;;;;;;1.53;1.30;;;19.50;46.10;;;;;;4982777;28;20998;-72
2023/12/29 00:55:19;;;;;;;1.00;0.90;;;19.50;46.20;;;;;;4989834;28;20227;-71
2023/12/29 00:57:45;;;;;;;1.10;1.00;;;19.50;46.10;;;;;;4989598;28;20718;-71
2023/12/29 01:00:12;;;;;;;1.00;0.90;;;19.50;46.10;;;;;;4985412;28;20588;-74
2023/12/29 01:02:38;;;;;;;1.00;0.83;;;19.50;46.90;;;;;;4981993;28;20319;-74
2023/12/29 01:05:04;;;;;;;1.40;1.00;;;19.50;46.10;;;;;;4993508;28;20874;-74
2023/12/29 01:07:30;;;;;;;1.13;0.97;;;19.50;46.10;;;;;;4988975;28;20445;-75
2023/12/29 01:09:55;;;;;;;1.13;1.03;;;19.50;46.20;;;;;;4979244;28;20584;-75
2023/12/29 01:12:21;;;;;;;1.17;0.80;;;19.50;46.20;;;;;;4982041;28;20232;-74
2023/12/29 01:14:46;;;;;;;1.07;0.80;;;19.50;46.10;;;;;;4985525;28;20711;-74
2023/12/29 01:17:12;;;;;;;0.90;0.80;;;19.50;46.10;;;;;;4986587;28;20719;-74
2023/12/29 01:19:37;;;;;;;1.17;0.97;;;19.50;46.10;;;;;;4988842;28;20358;-74
2023/12/29 01:22:03;;;;;;;0.90;0.80;;;19.50;46.10;;;;;;4962705;28;20318;-74
2023/12/29 01:24:29;;;;;;;1.80;0.90;;;19.50;46.20;;;;;;4990428;28;20230;-73
2023/12/29 01:26:54;;;;;;;1.00;0.90;;;19.50;46.10;;;;;;4982877;28;20691;-74
2023/12/29 01:29:20;;;;;;;1.00;0.90;;;19.50;46.10;;;;;;4990649;28;20278;-74
2023/12/29 01:31:45;;;;;;;1.00;0.90;;;19.50;46.10;;;;;;4985351;28;20612;-74
2023/12/29 01:34:11;;;;;;;1.60;1.10;;;19.50;46.20;;;;;;4974648;28;20778;-74
2023/12/29 01:36:36;;;;;;;1.00;0.90;;;19.50;46.10;;;;;;4959246;28;20315;-74
2023/12/29 01:39:02;;;;;;;1.10;1.00;;;19.50;46.20;;;;;;4982140;28;20240;-74
2023/12/29 01:41:29;;;;;;;1.30;0.90;;;19.50;46.10;;;;;;4992274;28;20258;-74
2023/12/29 01:43:57;;;;;;;2.60;1.10;;;19.50;46.10;;;;;;4987802;28;20448;-74
2023/12/29 01:46:25;;;;;;;1.33;0.80;;;19.50;46.10;;;;;;4975197;28;20809;-74
2023/12/29 01:48:51;;;;;;;1.00;0.80;;;19.50;46.10;;;;;;4965610;28;20443;-74
2023/12/29 01:51:18;;;;;;;0.90;0.90;;;19.50;46.10;;;;;;4987264;28;20451;-74
2023/12/29 01:53:44;;;;;;;1.10;1.00;;;19.50;46.10;;;;;;4984149;28;20482;-74
2023/12/29 01:56:10;;;;;;;1.30;1.20;;;19.50;46.10;;;;;;4985250;28;20468;-74
2023/12/29 01:58:37;;;;;;;1.20;1.10;;;19.50;46.10;;;;;;4989599;28;20444;-74
2023/12/29 02:01:04;;;;;;;1.37;1.03;;;19.50;46.20;;;;;;4983325;28;20555;-74
2023/12/29 02:03:30;;;;;;;2.50;1.03;;;19.50;46.10;;;;;;4973070;28;20477;-73
2023/12/29 02:05:57;;;;;;;1.00;0.90;;;19.50;46.20;;;;;;4980954;28;20441;-72
2023/12/29 02:08:22;;;;;;;0.83;0.77;;;19.50;46.10;;;;;;4984888;28;20302;-74
2023/12/29 02:10:48;;;;;;;1.00;0.90;;;19.50;46.10;;;;;;4975314;28;20451;-74
2023/12/29 02:13:14;;;;;;;1.00;0.80;;;19.50;46.10;;;;;;4989810;28;20230;-74
2023/12/29 02:15:40;;;;;;;1.10;1.00;;;19.50;47.10;;;;;;4982028;28;20476;-74
2023/12/29 02:18:15;;;;;;;1.03;0.93;;;19.50;46.10;;;;;;4977259;28;20699;-71
2023/12/29 02:20:42;;;;;;;1.13;1.03;;;19.50;46.10;;;;;;4971895;28;20297;-72
2023/12/29 02:23:08;;;;;;;1.10;1.00;;;19.50;46.20;;;;;;4984403;28;20461;-70
2023/12/29 02:25:34;;;;;;;0.90;0.80;;;19.50;46.10;;;;;;4975978;28;20472;-71
2023/12/29 02:28:10;;;;;;;1.30;0.90;;;19.50;46.10;;;;;;4975888;28;20508;-73
2023/12/29 02:30:48;;;;;;;1.00;0.90;;;19.50;46.20;;;;;;4981611;28;20983;-74
2023/12/29 02:33:19;;;;;;;1.90;0.87;;;19.50;46.10;;;;;;4981497;28;20451;-75
2023/12/29 02:35:46;;;;;;;0.80;0.80;;;19.50;46.10;;;;;;4993763;28;21016;-75
2023/12/29 02:38:12;;;;;;;0.80;0.80;;;19.50;46.10;;;;;;4980870;28;20569;-74
2023/12/29 02:40:38;;;;;;;1.90;1.10;;;19.50;46.10;;;;;;4989116;28;21028;-72
2023/12/29 02:43:04;;;;;;;0.80;0.60;;;19.50;46.10;;;;;;4982361;28;20527;-71
2023/12/29 02:45:29;;;;;;;1.10;0.80;;;19.50;46.20;;;;;;4989245;28;21457;-72
2023/12/29 02:47:55;;;;;;;0.80;0.80;;;19.50;46.20;;;;;;4988612;28;20572;-71
2023/12/29 02:50:20;;;;;;;0.90;0.80;;;19.50;46.10;;;;;;4984563;28;20729;-71
2023/12/29 02:52:46;;;;;;;0.83;0.83;;;19.50;46.10;;;;;;4983107;28;20216;-71
2023/12/29 02:55:11;;;;;;;0.90;0.80;;;19.50;46.10;;;;;;4986298;28;20219;-72
2023/12/29 02:57:38;;;;;;;0.93;0.90;;;19.50;46.00;;;;;;4970145;28;20212;-70
2023/12/29 03:00:05;;;;;;;1.00;0.90;;;19.50;46.10;;;;;;4986645;28;20219;-71
2023/12/29 03:02:30;;;;;;;1.00;0.90;;;19.50;46.00;;;;;;4986667;28;20469;-72
2023/12/29 03:04:56;;;;;;;1.30;0.90;;;19.50;46.10;;;;;;4986182;28;20935;-71
2023/12/29 03:07:22;;;;;;;0.80;0.80;;;19.50;46.10;;;;;;4984789;28;20223;-70
2023/12/29 03:09:47;;;;;;;0.90;0.80;;;19.50;46.00;;;;;;4992238;28;20234;-71
2023/12/29 03:12:15;;;;;;;1.27;0.90;;;19.50;46.10;;;;;;4988931;28;20235;-71
2023/12/29 03:14:41;;;;;;;1.00;0.97;;;19.50;46.00;;;;;;4975999;28;21952;-71
2023/12/29 03:17:06;;;;;;;0.80;0.70;;;19.50;46.10;;;;;;4963249;28;20420;-70
2023/12/29 03:19:32;;;;;;;1.10;0.90;;;19.50;46.10;;;;;;4977688;28;20250;-71
2023/12/29 03:21:58;;;;;;;1.23;0.87;;;19.50;46.10;;;;;;4983747;28;20247;-70
2023/12/29 03:24:23;;;;;;;1.10;1.00;;;19.50;46.00;;;;;;4972954;28;20249;-70
2023/12/29 03:26:49;;;;;;;1.10;1.00;;;19.50;46.00;;;;;;4988162;28;20671;-71
2023/12/29 03:29:14;;;;;;;1.20;1.00;;;19.50;46.00;;;;;;4962068;28;20275;-71
2023/12/29 03:31:40;;;;;;;1.00;0.80;;;19.50;46.00;;;;;;4985205;28;20236;-73
2023/12/29 03:34:06;;;;;;;1.17;1.07;;;19.50;46.10;;;;;;4971331;28;20229;-71
2023/12/29 03:36:32;;;;;;;1.30;0.87;;;19.50;46.10;;;;;;4989592;28;20239;-72
2023/12/29 03:38:58;;;;;;;0.80;0.80;;;19.50;46.10;;;;;;4982502;28;20476;-74
2023/12/29 03:41:23;;;;;;;0.77;0.70;;;19.50;46.10;;;;;;4982300;28;20681;-74
2023/12/29 03:43:49;;;;;;;1.00;0.80;;;19.50;46.10;;;;;;4984701;28;20230;-74
2023/12/29 03:46:18;;;;;;;0.80;0.70;;;19.50;46.10;;;;;;4985468;28;20227;-73
2023/12/29 03:48:44;;;;;;;1.10;0.90;;;19.50;46.00;;;;;;4987621;28;20814;-74
2023/12/29 03:51:09;;;;;;;0.90;0.80;;;19.50;46.00;;;;;;4978235;28;20447;-74
2023/12/29 03:53:35;;;;;;;0.70;0.70;;;19.50;46.10;;;;;;4967768;28;20581;-74
2023/12/29 03:56:05;;;;;;;2.30;1.03;;;19.50;46.10;;;;;;4986245;28;20235;-73
2023/12/29 03:58:30;;;;;;;0.90;0.80;;;19.50;46.00;;;;;;4985495;28;20290;-74
2023/12/29 04:00:56;;;;;;;0.70;0.70;;;19.50;46.00;;;;;;4980459;28;20444;-74
2023/12/29 04:03:22;;;;;;;1.53;0.70;;;19.50;46.00;;;;;;4972286;28;20317;-73
2023/12/29 04:05:47;;;;;;;0.80;0.80;;;19.50;46.00;;;;;;4975327;28;20645;-74
2023/12/29 04:08:13;;;;;;;0.70;0.60;;;19.50;46.00;;;;;;4966270;28;20332;-73
2023/12/29 04:10:38;;;;;;;0.80;0.80;;;19.50;46.00;;;;;;4964616;28;20227;-74
2023/12/29 04:13:04;;;;;;;0.97;0.90;;;19.50;46.10;;;;;;4987788;28;20227;-74
2023/12/29 04:15:30;;;;;;;1.00;0.90;;;19.50;46.00;;;;;;4980238;28;20220;-73
2023/12/29 04:17:56;;;;;;;0.70;0.70;;;19.50;46.00;;;;;;4973040;28;20224;-74
2023/12/29 04:20:21;;;;;;;0.80;0.60;;;19.40;46.00;;;;;;4991877;28;20251;-74
2023/12/29 04:22:47;;;;;;;0.87;0.87;;;19.50;46.00;;;;;;4980944;28;20688;-74
2023/12/29 04:25:12;;;;;;;0.97;0.80;;;19.50;46.00;;;;;;4971104;28;20216;-74
2023/12/29 04:27:40;;;;;;;0.90;0.80;;;19.50;46.00;;;;;;4989314;28;20220;-74
2023/12/29 04:30:06;;;;;;;1.00;0.70;;;19.50;46.00;;;;;;4979990;28;20710;-74
2023/12/29 04:32:31;;;;;;;1.00;0.80;;;19.50;46.00;;;;;;4968446;28;20531;-73
2023/12/29 04:34:57;;;;;;;0.90;0.63;;;19.50;46.00;;;;;;4985520;28;20435;-73
2023/12/29 04:37:22;;;;;;;0.80;0.70;;;19.40;46.00;;;;;;4984280;28;20255;-74
2023/12/29 04:39:48;;;;;;;1.23;0.90;;;19.50;46.00;;;;;;4988030;28;20621;-74
2023/12/29 04:42:13;;;;;;;0.80;0.77;;;19.50;46.00;;;;;;4987588;28;20317;-74
2023/12/29 04:44:39;;;;;;;1.00;0.90;;;19.50;46.00;;;;;;4983161;28;20223;-74
2023/12/29 04:47:04;;;;;;;0.90;0.80;;;19.50;46.00;;;;;;4980456;28;20710;-74
2023/12/29 04:49:30;;;;;;;0.77;0.77;;;19.50;46.00;;;;;;4975302;28;20984;-72
2023/12/29 04:51:56;;;;;;;1.70;0.70;;;19.50;46.00;;;;;;4990477;28;20246;-72
2023/12/29 04:54:21;;;;;;;0.80;0.60;;;19.50;45.90;;;;;;4988986;28;20297;-71
2023/12/29 04:56:47;;;;;;;0.87;0.87;;;19.50;45.90;;;;;;4982171;28;20220;-71
2023/12/29 04:59:12;;;;;;;1.20;0.80;;;19.50;46.00;;;;;;4992879;28;20219;-73
2023/12/29 05:01:38;;;;;;;0.70;0.70;;;19.50;45.90;;;;;;4986097;28;20717;-74
2023/12/29 05:04:03;;;;;;;0.87;0.80;;;19.50;45.90;;;;;;4974060;28;20224;-73
2023/12/29 05:06:29;;;;;;;0.90;0.70;;;19.50;45.90;;;;;;4980640;28;20223;-73
2023/12/29 05:08:54;;;;;;;1.00;0.80;;;19.50;45.90;;;;;;4991206;28;20236;-73
2023/12/29 05:11:20;;;;;;;1.20;0.80;;;19.50;45.90;;;;;;4973369;28;20236;-73
2023/12/29 05:13:45;;;;;;;1.00;0.80;;;19.50;45.90;;;;;;4986260;28;20583;-73
2023/12/29 05:16:11;;;;;;;1.00;0.70;;;19.50;45.80;;;;;;4975023;28;21002;-73
2023/12/29 05:18:36;;;;;;;1.00;0.90;;;19.50;45.80;;;;;;4972326;28;20251;-73
2023/12/29 05:21:02;;;;;;;1.00;0.60;;;19.50;45.80;;;;;;4975678;28;20219;-73
2023/12/29 05:23:28;;;;;;;0.90;0.70;;;19.50;45.90;;;;;;4987758;28;20705;-73
2023/12/29 05:25:53;;;;;;;0.83;0.80;;;19.50;45.80;;;;;;4992517;28;20231;-73
2023/12/29 05:28:19;;;;;;;0.80;0.77;;;19.50;45.80;;;;;;4988259;28;22227;-74
2023/12/29 05:30:44;;;;;;;1.53;0.83;;;19.50;45.90;;;;;;4975916;28;20588;-73
2023/12/29 05:33:10;;;;;;;0.70;0.67;;;19.50;45.80;;;;;;4983329;28;20223;-73
2023/12/29 05:35:35;;;;;;;0.90;0.80;;;19.50;45.80;;;;;;4991113;28;20234;-73
2023/12/29 05:38:01;;;;;;;1.07;0.90;;;19.50;45.80;;;;;;4965326;28;20248;-74
2023/12/29 05:40:26;;;;;;;0.93;0.83;;;19.50;45.80;;;;;;4972081;28;21457;-73
2023/12/29 05:42:52;;;;;;;0.70;0.63;;;19.50;45.80;;;;;;4982256;28;20329;-73
2023/12/29 05:45:18;;;;;;;0.87;0.73;;;19.60;45.90;;;;;;4984757;28;20219;-74
2023/12/29 05:47:43;;;;;;;0.87;0.80;;;19.60;45.90;;;;;;4988113;28;20726;-72
2023/12/29 05:50:09;;;;;;;1.20;0.80;;;19.60;45.90;;;;;;4982127;28;20227;-72
2023/12/29 05:52:34;;;;;;;0.70;0.60;;;19.50;45.80;;;;;;4975004;28;20243;-74
2023/12/29 05:55:00;;;;;;;0.80;0.70;;;19.60;45.90;;;;;;4990785;28;20246;-73
2023/12/29 05:57:26;;;;;;;3.33;0.90;;;19.60;45.80;;;;;;4986751;28;20294;-74
2023/12/29 05:59:52;;;;;;;0.80;0.70;;;19.60;45.90;;;;;;4993899;28;20726;-72
2023/12/29 06:02:17;;;;;;;0.80;0.70;;;19.60;45.90;;;;;;4987148;28;20427;-72
2023/12/29 06:04:43;;;;;;;0.60;0.60;;;19.60;45.80;;;;;;4990728;28;20298;-72
2023/12/29 06:07:09;;;;;;;1.73;0.80;;;19.60;45.90;;;;;;4970701;28;20975;-72
2023/12/29 06:09:34;;;;;;;0.80;0.67;;;19.60;45.80;;;;;;4971836;28;20231;-73
2023/12/29 06:12:00;;;;;;;0.93;0.70;;;19.60;45.80;;;;;;4973610;28;20232;-73
2023/12/29 06:14:25;;;;;;;0.80;0.80;;;19.60;45.80;;;;;;4974950;28;20258;-75
2023/12/29 06:16:52;;;;;;;1.30;0.80;;;19.60;45.90;;;;;;4964602;28;20233;-75
2023/12/29 06:19:18;;;;;;;0.87;0.80;;;19.60;45.80;;;;;;4984497;28;20222;-73
2023/12/29 06:21:44;;;;;;;1.10;0.80;;;19.60;45.80;;;;;;4981185;28;20436;-74
2023/12/29 06:24:12;;;;;;;0.90;0.80;;;19.60;45.70;;;;;;4977739;28;20227;-73
2023/12/29 06:26:43;;;;;;;1.23;0.73;;;19.60;45.70;;;;;;4986317;28;22215;-73
2023/12/29 06:29:09;;;;;;;0.90;0.67;;;19.60;45.70;;;;;;4981196;28;20847;-73
2023/12/29 06:31:35;;;;;;;1.10;0.73;;;19.60;45.70;;;;;;4994919;28;20592;-74
2023/12/29 06:34:00;;;;;;;1.40;0.60;;;19.60;45.70;;;;;;4994869;28;20447;-72
2023/12/29 06:36:26;;;;;;;0.83;0.80;;;19.60;45.70;;;;;;4973316;28;20231;-73
2023/12/29 06:38:52;;;;;;;1.27;0.93;;;19.60;45.70;;;;;;4980224;28;20223;-74
2023/12/29 06:41:18;;;;;;;0.70;0.70;;;19.60;45.70;;;;;;4985488;28;20227;-73
2023/12/29 06:43:44;;;;;;;0.87;0.70;;;19.60;45.70;;;;;;4994591;28;20429;-74
2023/12/29 06:46:09;;;;;;;1.20;0.77;;;19.60;45.70;;;;;;4984247;28;20482;-73
2023/12/29 06:48:36;;;;;;;0.93;0.83;;;19.60;45.70;;;;;;4994296;28;20235;-73
2023/12/29 06:51:01;;;;;;;0.70;0.70;;;19.60;45.70;;;;;;4990052;28;20243;-73
2023/12/29 06:53:27;;;;;;;0.80;0.60;;;19.60;45.70;;;;;;4995558;28;20780;-72
2023/12/29 06:55:53;;;;;;;1.07;0.73;;;19.60;45.70;;;;;;4997476;28;20223;-74
2023/12/29 06:58:18;;;;;;;0.63;0.60;;;19.60;45.70;;;;;;4986843;28;20716;-74
2023/12/29 07:00:44;;;;;;;0.87;0.87;;;19.60;45.70;;;;;;4979937;28;20793;-75
2023/12/29 07:03:12;;;;;;;1.80;1.00;;;19.60;45.70;;;;;;4986042;28;20227;-74
2023/12/29 07:05:38;;;;;;;1.10;0.80;;;19.60;45.60;;;;;;4985100;28;20894;-74
2023/12/29 07:08:04;;;;;;;5.03;0.90;;;19.60;45.60;;;;;;4986654;28;20530;-74
2023/12/29 07:10:29;;;;;;;1.00;0.70;;;19.60;45.60;;;;;;4988574;28;20254;-73
2023/12/29 07:12:55;;;;;;;0.70;0.60;;;19.60;45.70;;;;;;4982148;28;20220;-73
2023/12/29 07:15:22;;;;;;;1.23;0.87;;;19.60;45.70;;;;;;4966961;28;20259;-73
2023/12/29 07:17:48;;;;;;;0.90;0.67;;;19.60;45.70;;;;;;4990734;28;20798;-73
2023/12/29 07:20:13;;;;;;;0.90;0.60;;;19.60;45.70;;;;;;4990289;28;20523;-74
2023/12/29 07:22:39;;;;;;;1.00;0.80;;;19.60;45.70;;;;;;4982721;28;20262;-74
2023/12/29 07:25:05;;;;;;;0.80;0.70;;;19.60;45.60;;;;;;4986141;28;20223;-74
2023/12/29 07:27:30;;;;;;;1.20;0.90;;;19.60;45.70;;;;;;4994803;28;20595;-74
2023/12/29 07:29:56;;;;;;;0.70;0.70;;;19.60;45.70;;;;;;4978821;28;20759;-74
2023/12/29 07:32:22;;;;;;;2.30;0.90;;;19.60;45.70;;;;;;4978672;28;20742;-74
2023/12/29 07:34:48;;;;;;;0.97;0.80;;;19.60;45.70;;;;;;4986537;28;20487;-74
2023/12/29 07:37:15;;;;;;;1.23;0.83;;;19.60;45.70;;;;;;4993190;28;20250;-74
2023/12/29 07:39:41;;;;;;;0.73;0.60;;;19.60;45.70;;;;;;4993374;28;20518;-74
2023/12/29 07:42:06;;;;;;;0.90;0.70;;;19.60;45.70;;;;;;4991977;28;20231;-74
2023/12/29 07:44:32;;;;;;;0.90;0.70;;;19.60;45.70;;;;;;4999049;28;20227;-74
2023/12/29 07:46:58;;;;;;;1.00;0.80;;;19.60;45.70;;;;;;4986093;28;20243;-73
2023/12/29 07:49:23;;;;;;;1.77;0.90;;;19.60;45.70;;;;;;4981604;28;20302;-75
2023/12/29 07:51:49;;;;;;;0.97;0.80;;;19.60;45.70;;;;;;4979178;28;20621;-75
2023/12/29 07:54:15;;;;;;;2.00;0.90;;;19.60;45.70;;;;;;4999991;28;20319;-75
2023/12/29 07:56:41;;;;;;;0.80;0.60;;;19.60;45.60;;;;;;4997695;28;20223;-75
2023/12/29 07:59:06;;;;;;;0.90;0.77;;;19.60;45.70;;;;;;4996646;28;20572;-74
2023/12/29 08:01:32;;;;;;;1.00;0.90;;;19.60;45.70;;;;;;4984693;28;20571;-74
2023/12/29 08:03:57;;;;;;;0.90;0.60;;;19.60;45.70;;;;;;4990608;28;20228;-74
2023/12/29 08:06:23;;;;;;;1.00;0.77;;;19.60;45.60;;;;;;4984626;28;20238;-75
2023/12/29 08:08:48;;;;;;;0.90;0.77;;;19.60;45.70;;;;;;4990256;28;20229;-74
2023/12/29 08:11:17;;;;;;;0.80;0.70;;;19.60;45.70;;;;;;4983905;28;20314;-74
2023/12/29 08:13:44;;;;;;;0.70;0.63;;;19.60;45.70;;;;;;4992512;28;20231;-74
2023/12/29 08:16:11;;;;;;;0.70;0.60;;;19.60;45.70;;;;;;4996096;28;20982;-77
2023/12/29 08:18:36;;;;;;;0.93;0.70;;;19.60;45.70;;;;;;4998219;28;20845;-75
2023/12/29 08:21:02;;;;;;;0.90;0.70;;;19.60;45.70;;;;;;4982479;28;20451;-72
2023/12/29 08:23:28;;;;;;;0.97;0.83;;;19.60;45.70;;;;;;4989980;28;20707;-74
2023/12/29 08:25:53;;;;;;;0.77;0.70;;;19.60;45.70;;;;;;4984962;28;20251;-74
2023/12/29 08:28:19;;;;;;;0.83;0.70;;;19.60;45.70;;;;;;4987477;28;20647;-72
2023/12/29 08:30:47;;;;;;;1.30;0.93;;;19.60;45.70;;;;;;4997827;28;20225;-73
2023/12/29 08:33:13;;;;;;;1.00;0.60;;;19.60;45.70;;;;;;4968990;28;20243;-74
2023/12/29 08:35:42;;;;;;;0.83;0.83;;;19.60;45.70;;;;;;4983179;28;21052;-73
2023/12/29 08:38:07;;;;;;;0.90;0.70;;;19.60;45.70;;;;;;4991279;28;20306;-73
2023/12/29 08:40:33;;;;;;;2.10;0.90;;;19.60;45.80;;;;;;4985451;28;20955;-71
2023/12/29 08:42:59;;;;;;;0.70;0.60;;;19.60;46.60;;;;;;4985697;28;20657;-71
2023/12/29 08:45:25;;;;;;;0.87;0.73;;;19.60;45.70;;;;;;4996469;28;20687;-73
2023/12/29 08:47:51;;;;;;;0.70;0.70;;;19.60;45.80;;;;;;4998325;28;20483;-72
2023/12/29 08:50:16;;;;;;;1.20;0.60;;;19.60;45.70;;;;;;4997233;28;20219;-72
2023/12/29 08:52:42;;;;;;;0.70;0.63;;;19.60;45.80;;;;;;4991550;28;20220;-74
2023/12/29 08:55:08;;;;;;;0.70;0.60;;;19.60;45.80;;;;;;4985715;28;20656;-73
2023/12/29 08:57:34;;;;;;;0.80;0.73;;;19.60;45.80;;;;;;4991198;28;20221;-72
2023/12/29 08:59:59;;;;;;;0.97;0.90;;;19.60;45.80;;;;;;4980926;28;20220;-71
2023/12/29 09:02:25;;;;;;;0.80;0.70;;;19.60;45.90;;;;;;4976095;28;20505;-71
2023/12/29 09:04:51;;;;;;;0.80;0.80;;;19.60;45.80;;;;;;4991186;28;20232;-72
2023/12/29 09:07:16;;;;;;;0.80;0.60;;;19.60;45.80;;;;;;4994871;28;20227;-72
2023/12/29 09:09:42;;;;;;;1.00;0.90;;;19.60;45.80;;;;;;4980645;28;20244;-73
2023/12/29 09:12:07;;;;;;;1.43;1.33;;;19.50;45.70;;;;;;4992721;28;20753;-74
2023/12/29 09:14:34;;;;;;;1.13;0.97;;;19.50;45.70;;;;;;4984717;28;20227;-73
2023/12/29 09:17:00;;;;;;;0.80;0.70;;;19.60;45.80;;;;;;4998402;28;20258;-72
2023/12/29 09:19:26;;;;;;;1.07;0.80;;;19.60;45.90;;;;;;4988259;28;20487;-73
2023/12/29 09:21:51;;;;;;;1.10;0.90;;;19.60;45.90;;;;;;4993322;28;21154;-73
2023/12/29 09:24:17;;;;;;;0.87;0.80;;;19.60;45.90;;;;;;4984385;28;20281;-75
2023/12/29 09:26:42;;;;;;;0.77;0.77;;;19.50;45.80;;;;;;4998953;28;20231;-73
2023/12/29 09:29:08;;;;;;;1.30;0.80;;;19.60;45.90;;;;;;4990175;28;20234;-75
2023/12/29 09:31:33;;;;;;;0.90;0.60;;;19.60;45.90;;;;;;4981330;28;20242;-76
2023/12/29 09:34:00;;;;;;;1.10;0.77;;;19.50;45.80;;;;;;4974304;28;20607;-75
2023/12/29 09:36:25;;;;;;;1.60;1.30;;;19.60;46.00;;;;;;4999638;28;20313;-72
2023/12/29 09:38:51;;;;;;;0.70;0.60;;;19.60;46.00;;;;;;4978557;28;20911;-77
2023/12/29 09:41:19;;;;;;;1.10;0.80;;;19.60;46.00;;;;;;4968612;28;20224;-77
2023/12/29 09:43:48;;;;;;;0.80;0.70;;;19.50;45.80;;;;;;5000350;28;20597;-78
2023/12/29 09:46:16;;;;;;;1.53;0.80;;;19.60;46.00;;;;;;4976802;28;20548;-76
2023/12/29 09:48:48;;;;;;;0.83;0.67;;;19.60;45.90;;;;;;4988044;28;20439;-71
2023/12/29 09:51:15;;;;;;;0.97;0.80;;;19.60;46.00;;;;;;4993695;28;20469;-72
2023/12/29 09:53:41;;;;;;;2.00;0.70;;;19.50;45.90;;;;;;4977372;28;20942;-73
2023/12/29 09:56:08;;;;;;;0.80;0.70;;;19.50;45.90;;;;;;4988222;28;20425;-73
2023/12/29 09:58:37;;;;;;;1.43;0.70;;;19.60;46.00;;;;;;4985118;28;20469;-72
2023/12/29 10:01:06;;;;;;;0.97;0.63;;;19.50;45.90;;;;;;5011301;28;20539;-72
2023/12/29 10:03:32;;;;;;;0.70;0.70;;;19.60;46.10;;;;;;4993846;28;20512;-74
2023/12/29 10:06:00;;;;;;;1.63;0.70;;;19.60;46.10;;;;;;4983137;28;20441;-75
2023/12/29 10:08:27;;;;;;;1.10;0.70;;;19.50;46.00;;;;;;4970661;28;20234;-74
2023/12/29 10:10:57;;;;;;;1.00;0.70;;;19.60;46.10;;;;;;4994175;28;20441;-74
2023/12/29 10:13:23;;;;;;;0.70;0.60;;;19.50;46.00;;;;;;4988167;28;20478;-74
2023/12/29 10:16:04;;;;;;;0.80;0.80;;;19.60;46.10;;;;;;4995539;28;20452;-73
2023/12/29 10:18:57;;;;;;;2.00;0.70;;;19.60;46.10;;;;;;4993203;28;20738;-74
2023/12/29 10:21:48;;;;;;;0.90;0.80;;;19.60;46.10;;;;;;4992051;28;20421;-73
2023/12/29 10:24:19;;;;;;;1.10;0.93;;;19.60;46.10;;;;;;4994309;28;21220;-75
2023/12/29 10:26:44;;;;;;;1.10;0.90;;;19.50;46.00;;;;;;4992834;28;20436;-74
2023/12/29 10:29:12;;;;;;;0.73;0.63;;;19.50;46.00;;;;;;4980596;28;20495;-73
2023/12/29 10:31:38;;;;;;;0.80;0.70;;;19.50;46.00;;;;;;4988337;28;20227;-74
2023/12/29 10:34:31;;;;;;;1.67;0.70;;;19.50;46.00;;;;;;4995266;28;20454;-75
2023/12/29 10:37:03;;;;;;;0.80;0.80;;;19.50;46.00;;;;;;4993770;28;20234;-75
2023/12/29 10:39:29;;;;;;;1.30;0.80;;;19.50;46.10;;;;;;4964431;28;20503;-77
2023/12/29 10:42:08;;;;;;;1.10;0.80;;;19.50;46.10;;;;;;4976257;28;20449;-76
2023/12/29 10:44:35;;;;;;;0.90;0.77;;;19.50;46.10;;;;;;5010280;28;20453;-78
2023/12/29 10:47:11;;;;;;;1.07;0.87;;;19.50;46.10;;;;;;4975996;28;20450;-77
2023/12/29 10:49:37;;;;;;;4.33;1.00;;;19.50;46.10;;;;;;4996844;28;21043;-76
2023/12/29 10:52:23;;;;;;;1.00;0.70;;;19.60;46.30;;;;;;4976851;28;20435;-76
2023/12/29 10:54:49;;;;;;;1.70;0.90;;;19.60;46.20;;;;;;4974622;28;20447;-76
2023/12/29 10:57:14;;;;;;;1.20;0.80;;;19.60;46.20;;;;;;4987027;28;20445;-75
2023/12/29 10:59:40;;;;;;;0.90;0.77;;;19.60;46.20;;;;;;4962610;28;21590;-74
2023/12/29 11:02:08;;;;;;;0.83;0.80;;;19.60;46.20;;;;;;4988470;28;21826;-75
2023/12/29 11:04:33;;;;;;;0.80;0.80;;;19.50;46.10;;;;;;4967290;28;20216;-73
2023/12/29 11:06:59;;;;;;;2.27;0.90;;;19.60;46.30;;;;;;4991062;28;20946;-76
2023/12/29 11:09:34;;;;;;;0.93;0.87;;;19.60;46.20;;;;;;4979044;28;20232;-70
2023/12/29 11:12:00;;;;;;;1.70;0.97;;;19.50;46.10;;;;;;4994261;28;20239;-71
2023/12/29 11:14:28;;;;;;;0.80;0.73;;;19.50;46.20;;;;;;4972115;28;20432;-70
2023/12/29 11:16:55;;;;;;;1.20;0.67;;;19.50;46.20;;;;;;4982744;28;20473;-72
2023/12/29 11:19:21;;;;;;;1.37;0.70;;;19.60;46.30;;;;;;4989487;28;20989;-71
2023/12/29 11:21:51;;;;;;;0.87;0.67;;;19.50;46.20;;;;;;4995412;28;20765;-74
2023/12/29 11:24:16;;;;;;;2.10;0.80;;;19.60;46.30;;;;;;4992923;28;20447;-75
2023/12/29 11:26:44;;;;;;;7.17;1.03;;;19.60;46.30;;;;;;4992945;28;20471;-75
2023/12/29 11:29:11;;;;;;;1.83;1.30;;;19.60;46.30;;;;;;4993942;28;20240;-75
2023/12/29 11:31:37;;;;;;;1.03;0.77;;;19.60;46.30;;;;;;4997369;28;20443;-76
2023/12/29 11:34:19;;;;;;;1.80;1.00;;;19.60;46.30;;;;;;4996369;28;20473;-77
2023/12/29 11:36:46;;;;;;;1.50;0.90;;;19.60;46.20;;;;;;4978984;28;20508;-76
2023/12/29 11:39:26;;;;;;;5.53;0.93;;;19.60;46.30;;;;;;4992140;28;20983;-75
2023/12/29 11:42:00;;;;;;;2.30;0.90;;;19.60;46.30;;;;;;4984700;28;20490;-77
2023/12/29 11:44:30;;;;;;;3.20;1.00;;;19.50;46.20;;;;;;5008355;28;20500;-75
2023/12/29 11:46:57;;;;;;;1.00;0.90;;;19.60;46.30;;;;;;4971678;28;20534;-77
2023/12/29 11:49:22;;;;;;;1.53;0.80;;;19.60;46.30;;;;;;4995970;28;20926;-83
2023/12/29 11:51:49;;;;;;;1.67;1.10;;;19.60;46.30;;;;;;4973732;28;20456;-78
2023/12/29 11:54:25;;;;;;;0.97;0.73;;;19.60;46.30;;;;;;4993616;28;20227;-83
2023/12/29 11:56:52;;;;;;;1.47;1.00;;;19.50;46.20;;;;;;4988420;28;20538;-80
2023/12/29 11:59:29;;;;;;;7.37;1.40;;;19.50;46.20;;;;;;4986395;28;20468;-77
2023/12/29 12:01:58;;;;;;;1.00;0.90;;;19.60;46.40;;;;;;4995387;28;20435;-79
2023/12/29 12:04:42;;;;;;;1.17;0.80;;;19.50;46.20;;;;;;4977300;28;20474;-80
2023/12/29 12:07:23;;;;;;;1.30;1.07;;;19.50;46.20;;;;;;4988381;28;20905;-77
2023/12/29 12:09:49;;;;;;;1.10;0.90;;;19.50;46.20;;;;;;4993713;28;21353;-82
2023/12/29 12:12:41;;;;;;;1.63;0.90;;;19.60;46.30;;;;;;4994504;28;20962;-81
2023/12/29 12:15:32;;;;;;;1.60;1.03;;;19.60;46.30;;;;;;4974801;28;20523;-82
2023/12/29 12:17:59;;;;;;;1.30;1.10;;;19.60;46.90;;;;;;4997201;28;21016;-81
2023/12/29 12:20:25;;;;;;;1.43;0.77;;;19.50;46.30;;;;;;4969743;28;20437;-78
2023/12/29 12:23:14;;;;;;;2.40;1.00;;;19.60;46.40;;;;;;4991872;28;20438;-76
2023/12/29 12:25:40;;;;;;;1.53;1.00;;;19.60;47.20;;;;;;4993060;28;20534;-78
2023/12/29 12:28:07;;;;;;;2.63;0.83;;;19.50;46.30;;;;;;4985398;28;20564;-78
2023/12/29 12:30:35;;;;;;;0.70;0.70;;;19.60;46.50;;;;;;4980066;28;20677;-72
2023/12/29 12:33:02;;;;;;;3.17;0.90;;;19.60;46.40;;;;;;4991635;28;20543;-74
2023/12/29 12:35:28;;;;;;;0.97;0.80;;;19.60;46.40;;;;;;4984169;28;20448;-74
2023/12/29 12:38:07;;;;;;;0.93;0.80;;;19.60;46.30;;;;;;4990481;28;20427;-72
2023/12/29 12:40:33;;;;;;;3.50;0.70;;;19.60;46.40;;;;;;4996225;28;20226;-75
2023/12/29 12:42:58;;;;;;;1.77;0.73;;;19.60;46.40;;;;;;4977231;28;20420;-73
2023/12/29 12:45:27;;;;;;;1.73;0.90;;;19.60;46.50;;;;;;4988908;28;20233;-74
2023/12/29 12:48:02;;;;;;;1.27;0.80;;;19.60;46.50;;;;;;4993912;28;20232;-74